Time;durP1;ratioP1;P1;durP2;ratioP2;P2;SDS_P1;SDS_P2;PMS_P1;PMS_P2;Temp;Humidity;BMP_temperature;BMP_pressure;BME280_temperature;BME280_humidity;BME280_pressure;Samples;Min_cycle;Max_cycle;Signal;HPM_P1;HPM_P2
2022/03/15 00:00:48;;;;;;;0.60;0.10;;;8.80;1.00;;;;;;5076970;28;20807;-77
2022/03/15 00:03:16;;;;;;;0.60;0.10;;;8.70;1.00;;;;;;5077694;28;20444;-79
2022/03/15 00:05:44;;;;;;;0.60;0.10;;;8.70;1.00;;;;;;5063988;28;20827;-79
2022/03/15 00:08:12;;;;;;;0.60;0.10;;;8.70;1.00;;;;;;5056746;28;20459;-77
2022/03/15 00:10:41;;;;;;;0.60;0.10;;;8.60;1.00;;;;;;5068208;28;20463;-78
2022/03/15 00:13:10;;;;;;;0.60;0.10;;;8.50;1.00;;;;;;5064564;28;20454;-77
2022/03/15 00:15:41;;;;;;;0.60;0.10;;;8.50;1.00;;;;;;5058190;28;20517;-77
2022/03/15 00:18:09;;;;;;;0.60;0.10;;;8.50;1.00;;;;;;5059606;28;20469;-79
2022/03/15 00:20:37;;;;;;;0.60;0.10;;;8.40;1.00;;;;;;5064491;28;20437;-78
2022/03/15 00:23:06;;;;;;;0.60;0.10;;;8.40;1.00;;;;;;5066710;28;20448;-77
2022/03/15 00:25:36;;;;;;;0.60;0.10;;;8.40;1.00;;;;;;5072136;28;21128;-78
2022/03/15 00:28:04;;;;;;;0.60;0.10;;;8.80;1.00;;;;;;5085039;28;20433;-78
2022/03/15 00:30:33;;;;;;;0.60;0.10;;;8.40;1.00;;;;;;5085257;28;20446;-78
2022/03/15 00:33:01;;;;;;;0.60;0.10;;;8.40;1.00;;;;;;5084442;28;20435;-78
2022/03/15 00:35:29;;;;;;;0.60;0.10;;;8.50;1.00;;;;;;5068557;28;20567;-77
2022/03/15 00:37:57;;;;;;;0.60;0.10;;;8.50;1.00;;;;;;5064929;28;20448;-79
2022/03/15 00:40:25;;;;;;;0.60;0.10;;;8.60;1.00;;;;;;5082204;28;20440;-79
2022/03/15 00:42:53;;;;;;;0.60;0.10;;;8.50;1.00;;;;;;5086092;28;20435;-78
2022/03/15 00:45:23;;;;;;;0.60;0.10;;;8.50;1.00;;;;;;5072891;28;20491;-78
2022/03/15 00:47:53;;;;;;;0.60;0.10;;;8.40;1.00;;;;;;5083710;28;20441;-77
2022/03/15 00:50:22;;;;;;;0.60;0.10;;;8.40;1.00;;;;;;5086204;28;20437;-78
2022/03/15 00:52:50;;;;;;;0.60;0.10;;;8.40;1.00;;;;;;5087294;28;20455;-78
2022/03/15 00:55:18;;;;;;;0.60;0.10;;;8.30;1.00;;;;;;5076591;28;20469;-78
2022/03/15 00:57:46;;;;;;;0.60;0.10;;;8.30;1.00;;;;;;5065301;28;20444;-79
2022/03/15 01:00:16;;;;;;;0.60;0.10;;;8.40;1.00;;;;;;5064105;28;20944;-78
2022/03/15 01:02:44;;;;;;;0.60;0.10;;;8.40;1.00;;;;;;5058286;28;20947;-77
2022/03/15 01:05:13;;;;;;;0.60;0.10;;;8.40;1.00;;;;;;5058991;28;20508;-78
2022/03/15 01:07:41;;;;;;;0.60;0.10;;;8.50;1.00;;;;;;5062109;28;20445;-78
2022/03/15 01:10:09;;;;;;;0.60;0.10;;;8.50;1.00;;;;;;5062232;28;20443;-78
2022/03/15 01:12:37;;;;;;;0.60;0.10;;;8.40;1.00;;;;;;5058571;28;20533;-78
2022/03/15 01:15:07;;;;;;;0.60;0.10;;;8.40;1.00;;;;;;5056677;28;20461;-78
2022/03/15 01:17:35;;;;;;;0.60;0.10;;;8.40;1.00;;;;;;5073158;28;20572;-79
2022/03/15 01:20:04;;;;;;;0.60;0.10;;;8.30;1.00;;;;;;5076564;28;20507;-78
2022/03/15 01:22:33;;;;;;;0.60;0.10;;;8.20;1.00;;;;;;5076345;28;20441;-78
2022/03/15 01:25:01;;;;;;;0.60;0.10;;;8.10;1.00;;;;;;5073104;28;20476;-78
2022/03/15 01:27:29;;;;;;;0.60;0.10;;;8.10;1.00;;;;;;5076017;28;20455;-78
2022/03/15 01:29:57;;;;;;;0.60;0.10;;;8.10;1.00;;;;;;5075620;28;20454;-77
2022/03/15 01:32:25;;;;;;;0.60;0.10;;;8.00;1.00;;;;;;5080830;28;20542;-78
2022/03/15 01:34:53;;;;;;;0.60;0.10;;;8.00;1.00;;;;;;5084419;28;20499;-78
2022/03/15 01:37:21;;;;;;;0.60;0.10;;;8.00;1.00;;;;;;5069156;28;20439;-78
2022/03/15 01:39:50;;;;;;;0.60;0.10;;;8.00;1.00;;;;;;5069450;28;20482;-78
2022/03/15 01:42:18;;;;;;;0.60;0.10;;;7.90;1.00;;;;;;5049681;28;20446;-78
2022/03/15 01:44:47;;;;;;;0.60;0.10;;;7.90;1.00;;;;;;5051143;28;20486;-78
2022/03/15 01:47:15;;;;;;;0.60;0.20;;;7.90;1.00;;;;;;5069122;28;20450;-78
2022/03/15 01:49:43;;;;;;;0.60;0.10;;;7.90;1.00;;;;;;5064649;28;20808;-77
2022/03/15 01:52:12;;;;;;;0.60;0.10;;;7.90;1.00;;;;;;5062662;28;20956;-78
2022/03/15 01:54:41;;;;;;;0.60;0.10;;;7.80;1.00;;;;;;5058333;28;20465;-78
2022/03/15 01:57:10;;;;;;;0.60;0.10;;;7.90;1.00;;;;;;5055946;28;20445;-78
2022/03/15 01:59:39;;;;;;;0.60;0.10;;;8.00;1.00;;;;;;5059255;28;20441;-78
2022/03/15 02:02:07;;;;;;;0.60;0.13;;;8.00;1.00;;;;;;5055957;28;20477;-79
2022/03/15 02:04:36;;;;;;;0.60;0.10;;;8.00;1.00;;;;;;5058923;28;20473;-79
2022/03/15 02:07:07;;;;;;;0.60;0.10;;;8.00;1.00;;;;;;5055097;28;20445;-79
2022/03/15 02:09:34;;;;;;;0.60;0.10;;;8.10;1.00;;;;;;5061624;28;20456;-78
2022/03/15 02:12:03;;;;;;;0.60;0.10;;;8.00;1.00;;;;;;5075710;28;20937;-78
2022/03/15 02:14:32;;;;;;;0.60;0.10;;;8.20;1.00;;;;;;5073870;28;21136;-77
2022/03/15 02:17:00;;;;;;;0.60;0.10;;;8.20;1.00;;;;;;5080289;28;20430;-78
2022/03/15 02:19:28;;;;;;;0.60;0.10;;;8.20;1.00;;;;;;5082580;28;20460;-79
2022/03/15 02:21:59;;;;;;;0.60;0.10;;;8.20;1.00;;;;;;5073822;28;20442;-79
2022/03/15 02:24:28;;;;;;;0.60;0.10;;;8.20;1.00;;;;;;5064093;28;20538;-78
2022/03/15 02:26:56;;;;;;;0.50;0.10;;;8.20;1.00;;;;;;5080189;28;20482;-78
2022/03/15 02:29:24;;;;;;;0.60;0.10;;;8.20;1.00;;;;;;5067245;28;20815;-78
2022/03/15 02:31:52;;;;;;;0.60;0.10;;;8.20;1.00;;;;;;5058466;28;20445;-78
2022/03/15 02:34:21;;;;;;;0.60;0.10;;;8.20;1.00;;;;;;5074166;28;20552;-78
2022/03/15 02:36:49;;;;;;;0.60;0.10;;;8.20;1.00;;;;;;5074738;28;20520;-78
2022/03/15 02:39:18;;;;;;;0.60;0.10;;;8.20;1.00;;;;;;5067920;28;20451;-78
2022/03/15 02:41:46;;;;;;;0.60;0.10;;;8.20;1.00;;;;;;5054202;28;20809;-78
2022/03/15 02:44:14;;;;;;;0.60;0.10;;;8.20;1.00;;;;;;5054059;28;20469;-77
2022/03/15 02:46:43;;;;;;;0.60;0.10;;;8.20;1.00;;;;;;5054513;28;20482;-78
2022/03/15 02:49:10;;;;;;;0.60;0.10;;;8.20;1.00;;;;;;5064812;28;20821;-78
2022/03/15 02:51:38;;;;;;;0.53;0.10;;;8.20;1.00;;;;;;5070411;28;20446;-78
2022/03/15 02:54:11;;;;;;;0.60;0.10;;;8.10;1.00;;;;;;5067415;28;20465;-78
2022/03/15 02:56:42;;;;;;;0.60;0.10;;;8.10;1.00;;;;;;5067950;28;20456;-77
2022/03/15 02:59:10;;;;;;;0.60;0.10;;;8.20;1.00;;;;;;5065983;28;20449;-77
2022/03/15 03:01:38;;;;;;;1.63;1.53;;;8.20;1.00;;;;;;5060161;28;20517;-78
2022/03/15 03:04:06;;;;;;;0.60;0.10;;;8.20;1.00;;;;;;5055003;28;20976;-77
2022/03/15 03:06:35;;;;;;;0.60;0.10;;;8.20;1.00;;;;;;5057875;28;20489;-77
2022/03/15 03:09:03;;;;;;;1.67;1.40;;;8.20;1.00;;;;;;5056095;28;20442;-77
2022/03/15 03:11:31;;;;;;;0.60;0.10;;;8.20;1.00;;;;;;5054369;28;20450;-77
2022/03/15 03:14:01;;;;;;;0.60;0.10;;;8.20;1.00;;;;;;5058041;28;20466;-77
2022/03/15 03:16:29;;;;;;;0.60;0.10;;;8.20;1.00;;;;;;5056442;28;20443;-78
2022/03/15 03:18:58;;;;;;;0.60;0.20;;;8.30;1.00;;;;;;5056428;28;20793;-77
2022/03/15 03:21:27;;;;;;;0.60;0.10;;;8.30;1.00;;;;;;5054037;28;20464;-78
2022/03/15 03:23:56;;;;;;;0.60;0.10;;;8.10;1.00;;;;;;5053493;28;20564;-78
2022/03/15 03:26:26;;;;;;;0.60;0.10;;;8.10;1.00;;;;;;5067229;28;20469;-78
2022/03/15 03:28:54;;;;;;;0.60;0.10;;;8.10;1.00;;;;;;5063089;28;20446;-76
2022/03/15 03:31:30;;;;;;;0.60;0.10;;;8.00;1.00;;;;;;5054143;28;20448;-77
2022/03/15 03:33:58;;;;;;;0.50;0.10;;;8.00;1.00;;;;;;5063439;28;20479;-77
2022/03/15 03:36:26;;;;;;;0.60;0.10;;;8.10;1.00;;;;;;5053962;28;20444;-78
2022/03/15 03:39:14;;;;;;;0.60;0.10;;;8.10;1.00;;;;;;5051990;28;20526;-78
2022/03/15 03:41:42;;;;;;;0.60;0.10;;;8.00;1.00;;;;;;5053274;28;20457;-78
2022/03/15 03:44:10;;;;;;;0.50;0.10;;;;;;;;;;5053040;28;20479;-78
2022/03/15 03:46:39;;;;;;;0.60;0.10;;;8.00;1.00;;;;;;5051739;28;20477;-78
2022/03/15 03:49:07;;;;;;;0.60;0.10;;;8.00;1.00;;;;;;5051928;28;20442;-78
2022/03/15 03:51:36;;;;;;;0.60;0.10;;;8.00;1.00;;;;;;5053304;28;20449;-78
2022/03/15 03:54:04;;;;;;;0.60;0.10;;;7.90;1.00;;;;;;5052169;28;20484;-78
2022/03/15 03:56:33;;;;;;;0.60;0.10;;;7.90;1.00;;;;;;5053196;28;20446;-78
2022/03/15 03:59:01;;;;;;;0.50;0.10;;;7.90;1.00;;;;;;5052845;28;20452;-77
2022/03/15 04:01:29;;;;;;;0.60;0.10;;;7.90;1.00;;;;;;5053133;28;20452;-78
2022/03/15 04:04:03;;;;;;;0.60;0.10;;;7.90;1.00;;;;;;5053345;28;20469;-78
2022/03/15 04:06:31;;;;;;;0.50;0.10;;;7.90;1.00;;;;;;5052839;28;20473;-78
2022/03/15 04:09:00;;;;;;;0.50;0.10;;;8.00;1.00;;;;;;5052295;28;20449;-78
2022/03/15 04:11:29;;;;;;;0.60;0.10;;;8.00;1.00;;;;;;5052308;28;20452;-78
2022/03/15 04:13:59;;;;;;;0.60;0.10;;;7.90;1.00;;;;;;5052614;28;20867;-78
2022/03/15 04:16:27;;;;;;;0.57;0.10;;;7.90;1.00;;;;;;5052847;28;20821;-78
2022/03/15 04:18:55;;;;;;;0.60;0.10;;;7.80;1.00;;;;;;5054074;28;20456;-78
2022/03/15 04:21:24;;;;;;;0.60;0.20;;;7.80;1.00;;;;;;5052222;28;20445;-78
2022/03/15 04:23:54;;;;;;;0.60;0.10;;;7.70;1.00;;;;;;5055443;28;20469;-78
2022/03/15 04:26:21;;;;;;;0.60;0.10;;;7.70;1.00;;;;;;5069828;28;20481;-78
2022/03/15 04:28:49;;;;;;;0.50;0.10;;;7.70;1.00;;;;;;5060882;28;20830;-78
2022/03/15 04:31:17;;;;;;;0.60;0.10;;;7.70;1.00;;;;;;5057609;28;20924;-77
2022/03/15 04:33:46;;;;;;;3.07;2.87;;;7.70;1.00;;;;;;5057266;28;20583;-78
2022/03/15 04:36:14;;;;;;;0.50;0.10;;;7.80;1.00;;;;;;5056134;28;20884;-77
2022/03/15 04:38:43;;;;;;;0.60;0.10;;;7.80;1.00;;;;;;5057094;28;20536;-76
2022/03/15 04:41:12;;;;;;;0.50;0.10;;;7.90;1.00;;;;;;5056070;28;20442;-76
2022/03/15 04:43:40;;;;;;;0.50;0.10;;;7.90;1.00;;;;;;5055683;28;20458;-76
2022/03/15 04:46:08;;;;;;;0.50;0.10;;;7.80;1.00;;;;;;5056066;28;20454;-77
2022/03/15 04:48:36;;;;;;;0.60;0.10;;;7.80;1.00;;;;;;5057120;28;20452;-76
2022/03/15 04:51:04;;;;;;;0.60;0.10;;;7.80;1.00;;;;;;5055805;28;20948;-76
2022/03/15 04:53:32;;;;;;;0.50;0.10;;;7.80;1.00;;;;;;5055930;28;20508;-76
2022/03/15 04:56:01;;;;;;;0.90;0.87;;;7.80;1.00;;;;;;5054373;28;20599;-77
2022/03/15 04:58:29;;;;;;;0.50;0.10;;;7.80;1.00;;;;;;5055123;28;20457;-77
2022/03/15 05:00:57;;;;;;;0.60;0.10;;;7.80;1.00;;;;;;5050566;28;20461;-76
2022/03/15 05:03:25;;;;;;;0.50;0.10;;;7.80;1.00;;;;;;5074631;28;20509;-77
2022/03/15 05:06:02;;;;;;;0.50;0.10;;;7.70;1.00;;;;;;5072553;28;20447;-76
2022/03/15 05:08:30;;;;;;;0.60;0.10;;;7.70;1.00;;;;;;5055523;28;20649;-77
2022/03/15 05:11:09;;;;;;;0.57;0.10;;;7.70;1.00;;;;;;5074588;28;20938;-78
2022/03/15 05:13:40;;;;;;;0.50;0.10;;;7.80;1.00;;;;;;5076413;28;20462;-76
2022/03/15 05:16:09;;;;;;;0.60;0.10;;;7.80;1.00;;;;;;5071138;28;21034;-77
2022/03/15 05:18:40;;;;;;;0.60;0.10;;;7.80;1.00;;;;;;5057180;28;20446;-78
2022/03/15 05:21:09;;;;;;;2.60;2.40;;;7.80;1.00;;;;;;5055886;28;20460;-77
2022/03/15 05:23:37;;;;;;;0.60;0.10;;;7.80;1.00;;;;;;5055518;28;21055;-77
2022/03/15 05:26:06;;;;;;;0.60;0.20;;;7.80;1.00;;;;;;5064122;28;20825;-77
2022/03/15 05:28:34;;;;;;;0.57;0.10;;;7.80;1.00;;;;;;5074754;28;20472;-76
2022/03/15 05:31:02;;;;;;;1.27;0.50;;;7.80;1.00;;;;;;5075366;28;20445;-77
2022/03/15 05:33:30;;;;;;;0.50;0.10;;;7.80;1.00;;;;;;5064679;28;20488;-77
2022/03/15 05:35:58;;;;;;;0.60;0.10;;;7.80;1.00;;;;;;5071333;28;20474;-77
2022/03/15 05:38:26;;;;;;;0.60;0.10;;;7.80;1.00;;;;;;5062205;28;20933;-77
2022/03/15 05:40:54;;;;;;;0.80;0.20;;;7.70;1.00;;;;;;5077246;28;20484;-76
2022/03/15 05:43:43;;;;;;;0.60;0.10;;;7.80;1.00;;;;;;5065712;28;20465;-77
2022/03/15 05:46:11;;;;;;;0.60;0.10;;;7.80;1.00;;;;;;5056077;28;20457;-77
2022/03/15 05:48:39;;;;;;;0.53;0.10;;;7.80;1.00;;;;;;5055679;28;20467;-77
2022/03/15 05:51:07;;;;;;;0.60;0.10;;;7.80;1.00;;;;;;5055559;28;20469;-77
2022/03/15 05:53:35;;;;;;;0.60;0.10;;;7.80;1.00;;;;;;5055318;28;20484;-77
2022/03/15 05:56:03;;;;;;;0.60;0.10;;;7.80;1.00;;;;;;5062223;28;20481;-77
2022/03/15 05:58:31;;;;;;;0.50;0.10;;;7.80;1.00;;;;;;5070428;28;20459;-76
2022/03/15 06:01:00;;;;;;;0.60;0.10;;;7.80;1.00;;;;;;5071200;28;20442;-77
2022/03/15 06:03:28;;;;;;;0.60;0.20;;;7.70;1.00;;;;;;5054650;28;20445;-77
2022/03/15 06:05:56;;;;;;;0.60;0.10;;;7.70;1.00;;;;;;5055597;28;20446;-77
2022/03/15 06:08:24;;;;;;;0.50;0.30;;;7.70;1.00;;;;;;5054293;28;20482;-76
2022/03/15 06:10:52;;;;;;;1.17;0.57;;;7.60;1.00;;;;;;5056179;28;20469;-77
2022/03/15 06:13:20;;;;;;;0.60;0.37;;;7.50;1.00;;;;;;5055478;28;20441;-77
2022/03/15 06:15:48;;;;;;;4.30;0.57;;;7.50;1.00;;;;;;5049920;28;20458;-77
2022/03/15 06:18:17;;;;;;;0.60;0.27;;;7.50;1.00;;;;;;5059903;28;20453;-77
2022/03/15 06:20:46;;;;;;;0.60;0.10;;;7.40;1.00;;;;;;5069556;28;20447;-77
2022/03/15 06:23:18;;;;;;;0.60;0.10;;;7.30;1.00;;;;;;5052573;28;20827;-77
2022/03/15 06:25:46;;;;;;;0.60;0.10;;;7.30;1.00;;;;;;5063479;28;20464;-76
2022/03/15 06:28:14;;;;;;;0.60;0.10;;;7.30;1.00;;;;;;5061717;28;20473;-77
2022/03/15 06:30:42;;;;;;;0.60;0.10;;;7.30;1.00;;;;;;5051757;28;20445;-78
2022/03/15 06:33:10;;;;;;;0.60;0.20;;;;;;;;;;5054626;28;20446;-78
2022/03/15 06:35:42;;;;;;;0.50;0.20;;;7.30;1.00;;;;;;5054353;28;20979;-76
2022/03/15 06:38:11;;;;;;;0.60;0.30;;;7.30;1.00;;;;;;5066015;28;20445;-78
2022/03/15 06:40:40;;;;;;;0.60;0.10;;;7.30;1.00;;;;;;5067029;28;20964;-77
2022/03/15 06:43:12;;;;;;;0.60;0.10;;;7.30;1.00;;;;;;5062901;28;20828;-76
2022/03/15 06:45:41;;;;;;;1.10;0.50;;;7.40;1.00;;;;;;5057672;28;20450;-77
2022/03/15 06:48:09;;;;;;;0.60;0.10;;;7.40;1.00;;;;;;5056085;28;20481;-78
2022/03/15 06:50:40;;;;;;;2.30;1.90;;;7.40;1.00;;;;;;5049657;28;20505;-77
2022/03/15 06:53:08;;;;;;;0.60;0.20;;;7.40;1.00;;;;;;5058710;28;20859;-78
2022/03/15 06:55:35;;;;;;;0.57;0.10;;;7.40;1.00;;;;;;5074185;28;20448;-78
2022/03/15 06:58:04;;;;;;;0.50;0.10;;;7.40;1.00;;;;;;5053081;28;20518;-76
2022/03/15 07:00:32;;;;;;;0.60;0.10;;;7.40;1.00;;;;;;5062098;28;20456;-79
2022/03/15 07:03:00;;;;;;;0.50;0.10;;;7.40;1.00;;;;;;5075914;28;20445;-76
2022/03/15 07:05:28;;;;;;;0.50;0.10;;;7.50;1.00;;;;;;5065879;28;20506;-78
2022/03/15 07:07:57;;;;;;;0.60;0.10;;;7.50;1.00;;;;;;5065185;28;20484;-79
2022/03/15 07:10:25;;;;;;;1.07;0.97;;;7.50;1.00;;;;;;5074878;28;20459;-78
2022/03/15 07:12:53;;;;;;;1.33;1.23;;;7.60;1.00;;;;;;5074475;28;20441;-77
2022/03/15 07:15:21;;;;;;;0.50;0.10;;;7.60;1.00;;;;;;5071087;28;20579;-78
2022/03/15 07:17:50;;;;;;;0.50;0.10;;;7.60;1.00;;;;;;5074990;28;20488;-79
2022/03/15 07:20:18;;;;;;;0.60;0.10;;;7.60;1.00;;;;;;5076956;28;20437;-79
2022/03/15 07:22:46;;;;;;;0.60;0.30;;;7.60;1.00;;;;;;5078329;28;20454;-77
2022/03/15 07:25:16;;;;;;;0.60;0.10;;;7.70;1.00;;;;;;5074669;28;20461;-76
2022/03/15 07:27:44;;;;;;;0.60;0.20;;;7.70;1.00;;;;;;5053420;28;20466;-77
2022/03/15 07:30:13;;;;;;;0.60;0.10;;;7.70;1.00;;;;;;5052255;28;20562;-77
2022/03/15 07:32:41;;;;;;;0.60;0.10;;;8.00;1.00;;;;;;5046825;28;20499;-77
2022/03/15 07:35:10;;;;;;;0.60;0.10;;;7.80;1.00;;;;;;5034954;28;20498;-75
2022/03/15 07:37:38;;;;;;;0.60;0.10;;;7.80;1.00;;;;;;5050502;28;20477;-76
2022/03/15 07:40:06;;;;;;;0.60;0.10;;;7.90;1.00;;;;;;5071874;28;20447;-77
2022/03/15 07:42:36;;;;;;;0.53;0.10;;;7.90;1.00;;;;;;5072132;28;20452;-78
2022/03/15 07:45:04;;;;;;;0.50;0.10;;;8.00;1.00;;;;;;5071988;28;20477;-76
2022/03/15 07:47:32;;;;;;;0.50;0.10;;;8.00;1.00;;;;;;5063008;28;20486;-78
2022/03/15 07:50:00;;;;;;;0.60;0.10;;;8.10;1.00;;;;;;5070112;28;20561;-76
2022/03/15 07:52:28;;;;;;;0.60;0.10;;;8.20;1.00;;;;;;5073946;28;20452;-77
2022/03/15 07:54:56;;;;;;;0.57;0.10;;;;;;;;;;5073333;28;20481;-77
2022/03/15 07:57:25;;;;;;;0.50;0.10;;;8.20;1.00;;;;;;5065334;28;20453;-78
2022/03/15 07:59:54;;;;;;;0.60;0.10;;;8.30;1.00;;;;;;5066340;28;20936;-77
2022/03/15 08:02:22;;;;;;;0.50;0.10;;;8.30;1.00;;;;;;5076410;28;20957;-78
2022/03/15 08:04:50;;;;;;;0.60;0.10;;;8.40;1.00;;;;;;5064456;28;20473;-79
2022/03/15 08:07:17;;;;;;;0.60;0.10;;;8.40;1.00;;;;;;5058587;28;20453;-78
2022/03/15 08:09:45;;;;;;;0.60;0.10;;;8.40;1.00;;;;;;5056404;28;20536;-75
2022/03/15 08:12:13;;;;;;;0.60;0.10;;;8.40;1.00;;;;;;5053442;28;20458;-75
2022/03/15 08:14:41;;;;;;;0.60;0.10;;;;;;;;;;5064559;28;20477;-76
2022/03/15 08:17:10;;;;;;;0.60;0.10;;;8.50;1.00;;;;;;5054256;28;20462;-82
2022/03/15 08:19:38;;;;;;;0.60;0.10;;;8.50;1.00;;;;;;5071777;28;20451;-79
2022/03/15 08:22:07;;;;;;;0.60;0.10;;;8.50;1.00;;;;;;5078826;28;20460;-78
2022/03/15 08:24:34;;;;;;;0.60;0.10;;;8.60;1.00;;;;;;5075328;28;20777;-77
2022/03/15 08:27:02;;;;;;;0.60;0.10;;;8.60;1.00;;;;;;5071539;28;20450;-79
2022/03/15 08:29:32;;;;;;;0.60;0.10;;;8.70;1.00;;;;;;5078877;28;20477;-80
2022/03/15 08:32:02;;;;;;;0.60;0.10;;;8.70;1.00;;;;;;5061021;28;20818;-79
2022/03/15 08:34:33;;;;;;;0.60;0.10;;;8.70;1.00;;;;;;5077868;28;20465;-77
2022/03/15 08:37:01;;;;;;;0.60;0.10;;;8.70;1.00;;;;;;5078828;28;20448;-78
2022/03/15 08:39:29;;;;;;;0.60;0.10;;;8.70;1.00;;;;;;5063225;28;20476;-80
2022/03/15 08:41:58;;;;;;;0.60;0.10;;;8.80;1.00;;;;;;5063700;28;20457;-80
2022/03/15 08:44:25;;;;;;;0.50;0.10;;;8.80;1.00;;;;;;5064369;28;20465;-79
2022/03/15 08:46:53;;;;;;;0.60;0.10;;;8.80;1.00;;;;;;5071658;28;20453;-79
2022/03/15 08:49:22;;;;;;;0.60;0.10;;;8.80;1.00;;;;;;5078617;28;21005;-79
2022/03/15 08:51:52;;;;;;;0.60;0.10;;;8.80;1.00;;;;;;5066604;28;20454;-80
2022/03/15 08:54:20;;;;;;;0.60;0.10;;;8.90;1.00;;;;;;5077480;28;20476;-80
2022/03/15 08:56:48;;;;;;;0.60;0.10;;;8.90;1.00;;;;;;5065118;28;20446;-80
2022/03/15 08:59:16;;;;;;;0.60;0.10;;;8.90;1.00;;;;;;5056719;28;20439;-79
2022/03/15 09:01:44;;;;;;;0.60;0.10;;;9.00;1.00;;;;;;5057014;28;20446;-79
2022/03/15 09:04:13;;;;;;;0.60;0.10;;;9.00;1.00;;;;;;5055619;28;20471;-79
2022/03/15 09:06:41;;;;;;;1.00;0.77;;;9.00;1.00;;;;;;5055059;28;20454;-80
2022/03/15 09:09:11;;;;;;;0.60;0.10;;;9.00;1.00;;;;;;5062843;28;20484;-79
2022/03/15 09:11:39;;;;;;;0.60;0.10;;;9.10;1.00;;;;;;5088972;28;20460;-77
2022/03/15 09:14:07;;;;;;;0.60;0.10;;;9.10;1.00;;;;;;5065105;28;20482;-77
2022/03/15 09:16:35;;;;;;;0.60;0.10;;;9.10;1.00;;;;;;5054946;28;20459;-76
2022/03/15 09:19:04;;;;;;;0.60;0.10;;;9.10;1.00;;;;;;5055431;28;20866;-78
2022/03/15 09:21:32;;;;;;;0.60;0.10;;;9.20;1.00;;;;;;5055969;28;20451;-79
2022/03/15 09:24:00;;;;;;;0.60;0.10;;;9.30;1.00;;;;;;5062886;28;20470;-77
2022/03/15 09:26:29;;;;;;;0.60;0.10;;;9.30;1.00;;;;;;5067980;28;20450;-77
2022/03/15 09:28:57;;;;;;;0.60;0.10;;;9.30;1.00;;;;;;5059050;28;20456;-77
2022/03/15 09:31:25;;;;;;;0.60;0.10;;;9.30;1.00;;;;;;5077042;28;20445;-77
2022/03/15 09:33:53;;;;;;;0.60;0.10;;;9.50;1.00;;;;;;5076630;28;20482;-77
2022/03/15 09:36:21;;;;;;;0.60;0.10;;;9.50;1.00;;;;;;5077160;28;20536;-78
2022/03/15 09:38:49;;;;;;;0.60;0.10;;;9.50;1.00;;;;;;5068290;28;20442;-78
2022/03/15 09:41:18;;;;;;;0.60;0.10;;;9.60;1.00;;;;;;5061520;28;20449;-77
2022/03/15 09:43:47;;;;;;;0.60;0.10;;;9.60;1.00;;;;;;5055427;28;20465;-78
2022/03/15 09:46:21;;;;;;;0.60;0.13;;;9.60;1.00;;;;;;5066238;28;20442;-78
2022/03/15 09:49:09;;;;;;;0.60;0.10;;;9.60;1.00;;;;;;5064959;28;20838;-77
2022/03/15 09:51:37;;;;;;;0.60;0.10;;;9.60;1.00;;;;;;5067923;28;20505;-78
2022/03/15 09:54:07;;;;;;;0.60;0.10;;;9.70;1.00;;;;;;5075646;28;21314;-78
2022/03/15 09:56:39;;;;;;;0.60;0.10;;;9.70;1.00;;;;;;5065892;28;20453;-77
2022/03/15 09:59:15;;;;;;;0.60;0.10;;;9.70;1.00;;;;;;5055287;28;20473;-78
2022/03/15 10:01:44;;;;;;;0.60;0.10;;;9.80;1.00;;;;;;5075073;28;20468;-77
2022/03/15 10:04:12;;;;;;;0.60;0.10;;;9.70;1.00;;;;;;5075475;28;20465;-78
2022/03/15 10:06:41;;;;;;;0.60;0.10;;;9.70;1.00;;;;;;5078877;28;20448;-78
2022/03/15 10:09:09;;;;;;;0.60;0.10;;;9.70;1.00;;;;;;5089183;28;20441;-79
2022/03/15 10:11:37;;;;;;;0.60;0.10;;;9.70;1.00;;;;;;5088981;28;20524;-78
2022/03/15 10:14:06;;;;;;;0.60;0.10;;;9.70;1.00;;;;;;5087547;28;20476;-78
2022/03/15 10:16:40;;;;;;;0.60;0.10;;;9.70;1.00;;;;;;5068960;28;20447;-77
2022/03/15 10:19:12;;;;;;;0.60;0.10;;;9.70;1.00;;;;;;5056213;28;20442;-78
2022/03/15 10:21:44;;;;;;;0.60;0.10;;;9.70;1.00;;;;;;5056829;28;20449;-79
2022/03/15 10:24:14;;;;;;;0.60;0.10;;;9.80;1.00;;;;;;5055515;28;20476;-79
2022/03/15 10:26:41;;;;;;;0.60;0.10;;;9.80;1.00;;;;;;5053778;28;20446;-79
2022/03/15 10:29:11;;;;;;;0.60;0.10;;;9.80;1.00;;;;;;5057805;28;20453;-79
2022/03/15 10:31:41;;;;;;;0.60;0.10;;;9.70;1.00;;;;;;5055845;28;20443;-78
2022/03/15 10:34:10;;;;;;;0.60;0.10;;;9.70;1.00;;;;;;5053301;28;20471;-78
2022/03/15 10:36:40;;;;;;;0.60;0.10;;;9.70;1.00;;;;;;5055392;28;20993;-78
2022/03/15 10:39:10;;;;;;;2.40;0.60;;;9.60;1.00;;;;;;5056211;28;20473;-79
2022/03/15 10:41:49;;;;;;;0.60;0.10;;;9.60;1.00;;;;;;5056272;28;20430;-79
2022/03/15 10:44:19;;;;;;;0.60;0.10;;;9.60;1.00;;;;;;5062062;28;20892;-79
2022/03/15 10:47:01;;;;;;;0.60;0.10;;;9.60;1.00;;;;;;5056590;28;20462;-80
2022/03/15 10:49:29;;;;;;;0.60;0.10;;;9.70;1.00;;;;;;5066442;28;20441;-79
2022/03/15 10:51:58;;;;;;;0.60;0.10;;;9.60;1.00;;;;;;5057126;28;20441;-79
2022/03/15 10:54:28;;;;;;;0.70;0.30;;;9.60;1.00;;;;;;5056905;28;20538;-77
2022/03/15 10:56:58;;;;;;;0.60;0.30;;;9.50;1.00;;;;;;5058717;28;20458;-79
2022/03/15 10:59:27;;;;;;;0.60;0.10;;;9.50;1.00;;;;;;5071015;28;20454;-79
2022/03/15 11:01:56;;;;;;;0.60;0.20;;;9.50;1.00;;;;;;5065391;28;20435;-79
2022/03/15 11:04:25;;;;;;;1.27;0.60;;;9.30;1.00;;;;;;5060665;28;20466;-80
2022/03/15 11:06:55;;;;;;;0.60;0.10;;;9.30;1.00;;;;;;5062831;28;20447;-78
2022/03/15 11:09:27;;;;;;;0.60;0.10;;;9.30;1.00;;;;;;5063660;28;20449;-82
2022/03/15 11:12:00;;;;;;;0.60;0.10;;;9.30;1.00;;;;;;5065462;28;20534;-79
2022/03/15 11:14:36;;;;;;;0.60;0.50;;;9.30;1.00;;;;;;5068837;28;20455;-82
2022/03/15 11:17:09;;;;;;;0.60;0.10;;;9.20;1.00;;;;;;5059966;28;20790;-81
2022/03/15 11:19:43;;;;;;;1.60;1.50;;;9.20;1.00;;;;;;5061927;28;20517;-79
2022/03/15 11:22:13;;;;;;;0.60;0.20;;;9.20;1.00;;;;;;5060924;28;20482;-81
2022/03/15 11:24:44;;;;;;;0.60;0.10;;;9.30;1.00;;;;;;5058748;28;20469;-82
2022/03/15 11:27:16;;;;;;;0.60;0.10;;;9.30;1.00;;;;;;5062080;28;20446;-80
2022/03/15 11:29:45;;;;;;;0.60;0.10;;;9.30;1.00;;;;;;5062142;28;20439;-81
2022/03/15 11:32:15;;;;;;;0.80;0.67;;;9.30;1.00;;;;;;5061588;28;20456;-80
2022/03/15 11:34:44;;;;;;;0.60;0.10;;;9.40;1.00;;;;;;5059029;28;20468;-79
2022/03/15 11:37:14;;;;;;;0.60;0.10;;;9.40;1.00;;;;;;5062122;28;20473;-82
2022/03/15 11:39:42;;;;;;;0.60;0.10;;;9.30;1.00;;;;;;5057940;28;20439;-80
2022/03/15 11:42:12;;;;;;;0.60;0.10;;;9.30;1.00;;;;;;5061089;28;20473;-82
2022/03/15 11:45:00;;;;;;;0.60;0.10;;;9.30;1.00;;;;;;5061650;28;20480;-80
2022/03/15 11:47:38;;;;;;;0.60;0.10;;;9.30;1.00;;;;;;5055664;28;20441;-80
2022/03/15 11:50:15;;;;;;;0.60;0.10;;;9.30;1.00;;;;;;5064400;28;20445;-81
2022/03/15 11:52:54;;;;;;;1.23;1.17;;;9.40;1.00;;;;;;5061953;28;20438;-83
2022/03/15 11:55:29;;;;;;;0.60;0.10;;;9.20;1.00;;;;;;5059371;28;20470;-80
2022/03/15 11:58:03;;;;;;;0.60;0.10;;;9.20;1.00;;;;;;5057757;28;20444;-81
2022/03/15 12:00:37;;;;;;;0.60;0.20;;;9.20;1.00;;;;;;5053534;28;20482;-81
2022/03/15 12:03:07;;;;;;;1.53;1.43;;;9.10;1.00;;;;;;5075491;28;20456;-78
2022/03/15 12:05:48;;;;;;;0.60;0.10;;;9.10;1.00;;;;;;5082719;28;20464;-80
2022/03/15 12:08:30;;;;;;;0.60;0.10;;;9.10;1.00;;;;;;5068508;28;20426;-79
2022/03/15 12:11:02;;;;;;;1.30;1.03;;;9.10;1.00;;;;;;5059161;28;20473;-82
2022/03/15 12:13:37;;;;;;;0.60;0.10;;;9.00;1.00;;;;;;5042908;28;20427;-81
2022/03/15 12:16:15;;;;;;;0.60;0.10;;;9.00;1.00;;;;;;5045117;28;20442;-82
2022/03/15 12:18:45;;;;;;;1.37;0.50;;;9.00;1.00;;;;;;5039863;28;20454;-82
2022/03/15 12:21:16;;;;;;;0.60;0.10;;;8.90;1.00;;;;;;5050819;28;20518;-78
2022/03/15 12:23:45;;;;;;;0.60;0.10;;;8.80;1.00;;;;;;5059124;28;20559;-79
2022/03/15 12:26:19;;;;;;;0.60;0.10;;;8.80;1.00;;;;;;5062900;28;20809;-78
2022/03/15 12:29:02;;;;;;;0.60;0.10;;;8.80;1.00;;;;;;5060730;28;21006;-79
2022/03/15 12:31:35;;;;;;;0.53;0.10;;;8.80;1.00;;;;;;5051573;28;20469;-80
2022/03/15 12:34:05;;;;;;;0.80;0.30;;;8.80;1.00;;;;;;5057160;28;20489;-79
2022/03/15 12:36:47;;;;;;;0.60;0.10;;;8.80;1.00;;;;;;5055354;28;20449;-79
2022/03/15 12:39:17;;;;;;;1.37;1.27;;;8.80;1.00;;;;;;5055715;28;20446;-78
2022/03/15 12:41:45;;;;;;;0.70;0.60;;;8.80;1.00;;;;;;5053759;28;20481;-79
2022/03/15 12:44:13;;;;;;;0.60;0.10;;;8.80;1.00;;;;;;5052750;28;20478;-79
2022/03/15 12:46:43;;;;;;;1.10;0.50;;;8.80;1.00;;;;;;5058787;28;20453;-79
2022/03/15 12:49:13;;;;;;;0.60;0.20;;;8.80;1.00;;;;;;5059124;28;20940;-80
2022/03/15 12:51:45;;;;;;;0.60;0.20;;;8.70;1.00;;;;;;5050178;28;20561;-79
2022/03/15 12:54:14;;;;;;;0.50;0.10;;;8.70;1.00;;;;;;5061028;28;20470;-79
2022/03/15 12:56:47;;;;;;;0.60;0.10;;;8.70;1.00;;;;;;5063555;28;20468;-79
2022/03/15 12:59:20;;;;;;;0.50;0.10;;;8.80;1.00;;;;;;5063194;28;21062;-79
2022/03/15 13:01:48;;;;;;;0.57;0.10;;;8.70;1.00;;;;;;5063144;28;20491;-80
2022/03/15 13:04:27;;;;;;;0.57;0.10;;;8.70;1.00;;;;;;5077508;28;20554;-79
2022/03/15 13:06:56;;;;;;;1.33;1.13;;;8.80;1.00;;;;;;5073504;28;20474;-79
2022/03/15 13:09:28;;;;;;;0.60;0.10;;;8.80;1.00;;;;;;5050627;28;20893;-78
2022/03/15 13:11:56;;;;;;;0.60;0.10;;;8.80;1.00;;;;;;5063374;28;20477;-78
2022/03/15 13:14:26;;;;;;;0.60;0.10;;;8.80;1.00;;;;;;5057339;28;20564;-79
2022/03/15 13:16:57;;;;;;;0.60;0.10;;;8.80;1.00;;;;;;5057705;28;20438;-78
2022/03/15 13:19:26;;;;;;;0.60;0.10;;;8.80;1.00;;;;;;5062561;28;20443;-79